createdAt,value
2019-02-28T00:00:45.446Z,98.10
2019-02-28T00:03:14.065Z,98.10
2019-02-28T00:05:42.578Z,98.10
2019-02-28T00:08:11.116Z,98.10
2019-02-28T00:10:39.561Z,98.70
2019-02-28T00:13:08.007Z,98.80
2019-02-28T00:15:36.479Z,99.00
2019-02-28T00:18:05.002Z,98.90
2019-02-28T00:20:33.539Z,99.20
2019-02-28T00:23:01.983Z,99.90
2019-02-28T00:25:30.619Z,99.70
2019-02-28T00:27:59.070Z,99.70
2019-02-28T00:30:27.521Z,99.10
2019-02-28T00:32:56.331Z,98.70
2019-02-28T00:35:26.322Z,99.00
2019-02-28T00:37:56.633Z,99.20
2019-02-28T00:40:25.406Z,99.00
2019-02-28T00:42:54.013Z,99.10
2019-02-28T00:45:22.542Z,98.70
2019-02-28T00:47:50.991Z,98.50
2019-02-28T00:50:19.558Z,98.50
2019-02-28T00:52:47.990Z,98.50
2019-02-28T00:55:16.709Z,98.70
2019-02-28T00:57:45.178Z,98.60
2019-02-28T01:00:19.008Z,98.90
2019-02-28T01:02:52.220Z,98.80
2019-02-28T01:05:17.953Z,99.10
2019-02-28T01:07:48.294Z,99.50
2019-02-28T01:10:16.982Z,99.80
2019-02-28T01:12:45.503Z,99.40
2019-02-28T01:15:15.907Z,99.60
2019-02-28T01:17:44.486Z,99.80
2019-02-28T01:20:16.124Z,99.90
2019-02-28T01:22:43.631Z,99.60
2019-02-28T01:25:14.134Z,99.30
2019-02-28T01:27:42.573Z,99.40
2019-02-28T01:30:13.727Z,99.40
2019-02-28T01:32:43.269Z,99.80
2019-02-28T01:35:12.527Z,99.90
2019-02-28T01:37:41.186Z,99.90
2019-02-28T01:40:14.343Z,99.90
2019-02-28T01:42:42.858Z,99.90
2019-02-28T01:45:14.850Z,99.90
2019-02-28T01:47:43.307Z,99.90
2019-02-28T01:50:13.118Z,99.90
2019-02-28T01:52:45.868Z,99.90
2019-02-28T01:55:12.362Z,99.90
2019-02-28T01:57:43.807Z,99.90
2019-02-28T02:00:16.294Z,99.90
2019-02-28T02:02:44.839Z,99.90
2019-02-28T02:05:16.889Z,99.90
2019-02-28T02:07:43.851Z,99.90
2019-02-28T02:10:17.667Z,99.90
2019-02-28T02:12:47.217Z,99.90
2019-02-28T02:15:16.845Z,99.90
2019-02-28T02:17:45.894Z,99.90
2019-02-28T02:20:15.922Z,99.90
2019-02-28T02:22:45.340Z,99.90
2019-02-28T02:25:14.230Z,99.90
2019-02-28T02:27:42.845Z,99.90
2019-02-28T02:30:17.605Z,99.90
2019-02-28T02:32:46.166Z,99.90
2019-02-28T02:35:14.988Z,99.90
2019-02-28T02:37:43.518Z,99.90
2019-02-28T02:40:14.097Z,99.90
2019-02-28T02:42:47.697Z,99.90
2019-02-28T02:45:14.639Z,99.90
2019-02-28T02:47:43.184Z,99.90
2019-02-28T02:50:13.845Z,99.90
2019-02-28T02:52:42.628Z,99.90
2019-02-28T02:55:11.410Z,99.90
2019-02-28T02:57:39.922Z,99.90
2019-02-28T03:00:13.747Z,99.90
2019-02-28T03:02:41.771Z,99.90
2019-02-28T03:05:10.461Z,99.90
2019-02-28T03:07:38.986Z,99.90
2019-02-28T03:10:17.237Z,99.90
2019-02-28T03:12:43.471Z,99.90
2019-02-28T03:15:16.766Z,99.90
2019-02-28T03:17:47.176Z,99.90
2019-02-28T03:20:15.612Z,99.90
2019-02-28T03:22:44.155Z,99.90
2019-02-28T03:25:14.820Z,99.90
2019-02-28T03:27:43.303Z,99.90
2019-02-28T03:30:28.865Z,99.90
2019-02-28T03:32:47.982Z,99.90
2019-02-28T03:35:16.576Z,99.90
2019-02-28T03:37:45.333Z,99.90
2019-02-28T03:40:14.734Z,99.90
2019-02-28T03:42:43.198Z,99.90
2019-02-28T03:45:15.603Z,99.90
2019-02-28T03:47:44.123Z,99.90
2019-02-28T03:50:13.289Z,99.90
2019-02-28T03:52:43.847Z,99.90
2019-02-28T03:55:13.442Z,99.90
2019-02-28T03:57:42.038Z,99.90
2019-02-28T04:00:21.422Z,99.90
2019-02-28T04:02:56.953Z,99.90
2019-02-28T04:05:26.799Z,99.90
2019-02-28T04:07:53.487Z,99.90
2019-02-28T04:10:22.412Z,99.90
2019-02-28T04:12:50.813Z,99.90
2019-02-28T04:15:20.149Z,99.90
2019-02-28T04:17:48.892Z,99.90
2019-02-28T04:20:17.530Z,99.90
2019-02-28T04:22:46.143Z,99.90
2019-02-28T04:25:14.630Z,99.90
2019-02-28T04:27:43.216Z,99.90
2019-02-28T04:30:14.070Z,99.90
2019-02-28T04:32:42.584Z,99.90
2019-02-28T04:35:11.498Z,99.90
2019-02-28T04:37:44.933Z,99.90
2019-02-28T04:40:14.009Z,99.90
2019-02-28T04:42:42.461Z,99.90
2019-02-28T04:45:14.686Z,99.90
2019-02-28T04:47:43.154Z,99.90
2019-02-28T04:50:13.326Z,99.90
2019-02-28T04:52:46.646Z,99.90
2019-02-28T04:55:12.205Z,99.90
2019-02-28T04:57:40.721Z,99.90
2019-02-28T05:00:13.822Z,99.90
2019-02-28T05:02:42.357Z,99.90
2019-02-28T05:05:12.590Z,99.90
2019-02-28T05:07:41.763Z,99.90
2019-02-28T05:10:11.253Z,99.90
2019-02-28T05:12:40.960Z,99.90
2019-02-28T05:15:12.341Z,99.90
2019-02-28T05:17:40.806Z,99.90
2019-02-28T05:20:11.885Z,99.90
2019-02-28T05:22:41.122Z,99.90
2019-02-28T05:25:10.959Z,99.90
2019-02-28T05:27:39.745Z,99.90
2019-02-28T05:30:19.310Z,99.90
2019-02-28T05:32:45.710Z,99.90
2019-02-28T05:35:14.184Z,99.90
2019-02-28T05:37:46.836Z,99.90
2019-02-28T05:40:14.436Z,99.90
2019-02-28T05:42:42.887Z,99.90
2019-02-28T05:45:14.775Z,99.90
2019-02-28T05:47:46.271Z,99.90
2019-02-28T05:50:16.759Z,99.90
2019-02-28T05:52:43.264Z,99.90
2019-02-28T05:55:11.918Z,99.90
2019-02-28T05:57:43.350Z,99.90
2019-02-28T06:00:16.453Z,99.90
2019-02-28T06:02:44.964Z,99.90
2019-02-28T06:05:13.549Z,99.90
2019-02-28T06:07:42.147Z,99.90
2019-02-28T06:10:12.632Z,99.90
2019-02-28T06:12:43.712Z,99.90
2019-02-28T06:15:14.485Z,99.90
2019-02-28T06:17:43.050Z,99.90
2019-02-28T06:20:16.484Z,99.90
2019-02-28T06:22:42.952Z,99.90
2019-02-28T06:25:13.007Z,99.90
2019-02-28T06:27:42.310Z,99.90
2019-02-28T06:30:14.465Z,99.90
2019-02-28T06:32:43.314Z,99.90
2019-02-28T06:35:16.162Z,99.90
2019-02-28T06:37:42.186Z,99.90
2019-02-28T06:40:17.473Z,99.90
2019-02-28T06:42:46.729Z,99.90
2019-02-28T06:45:18.388Z,99.90
2019-02-28T06:47:49.723Z,99.90
2019-02-28T06:50:17.525Z,99.90
2019-02-28T06:52:45.973Z,99.90
2019-02-28T06:55:19.126Z,99.90
2019-02-28T06:57:47.575Z,99.90
2019-02-28T07:00:16.723Z,99.90
2019-02-28T07:02:45.339Z,99.90
2019-02-28T07:05:13.927Z,99.90
2019-02-28T07:07:45.791Z,99.70
2019-02-28T07:10:18.183Z,99.30
2019-02-28T07:12:48.321Z,98.60
2019-02-28T07:15:16.794Z,98.80
2019-02-28T07:17:46.513Z,98.50
2019-02-28T07:20:17.739Z,98.30
2019-02-28T07:22:46.210Z,98.20
2019-02-28T07:25:14.815Z,97.90
2019-02-28T07:27:43.269Z,97.10
2019-02-28T07:30:19.391Z,96.00
2019-02-28T07:32:48.085Z,93.30
2019-02-28T07:35:16.542Z,93.60
2019-02-28T07:37:45.026Z,93.80
2019-02-28T07:40:16.172Z,94.60
2019-02-28T07:42:45.253Z,95.40
2019-02-28T07:45:14.739Z,95.60
2019-02-28T07:47:43.447Z,95.80
2019-02-28T07:50:13.511Z,95.80
2019-02-28T07:52:42.104Z,94.90
2019-02-28T07:55:12.782Z,93.00
2019-02-28T07:57:41.233Z,90.90
2019-02-28T08:00:18.199Z,87.10
2019-02-28T08:02:45.566Z,82.10
2019-02-28T08:05:14.418Z,77.50
2019-02-28T08:07:42.940Z,76.90
2019-02-28T08:10:19.831Z,76.00
2019-02-28T08:12:48.404Z,72.10
2019-02-28T08:15:22.391Z,71.80
2019-02-28T08:17:49.507Z,70.30
2019-02-28T08:20:18.592Z,70.00
2019-02-28T08:22:47.143Z,67.30
2019-02-28T08:25:16.341Z,68.10
2019-02-28T08:27:44.971Z,66.90
2019-02-28T08:30:22.006Z,66.60
2019-02-28T08:32:50.624Z,61.80
2019-02-28T08:35:19.214Z,62.10
2019-02-28T08:37:47.736Z,60.50
2019-02-28T08:40:26.365Z,59.40
2019-02-28T08:42:54.119Z,60.10
2019-02-28T08:45:22.671Z,62.50
2019-02-28T08:47:55.239Z,61.10
2019-02-28T08:50:25.312Z,59.40
2019-02-28T08:53:04.956Z,58.60
2019-02-28T08:55:33.515Z,57.00
2019-02-28T08:58:06.194Z,55.90
2019-02-28T09:00:33.393Z,55.80
2019-02-28T09:03:02.034Z,54.50
2019-02-28T09:05:30.560Z,54.50
2019-02-28T09:07:59.118Z,53.30
2019-02-28T09:10:27.775Z,52.10
2019-02-28T09:12:56.326Z,50.70
2019-02-28T09:15:30.011Z,50.90
2019-02-28T09:17:58.434Z,50.00
2019-02-28T09:20:25.687Z,50.60
2019-02-28T09:22:54.210Z,50.00
2019-02-28T09:25:24.029Z,49.90
2019-02-28T09:27:52.619Z,49.20
2019-02-28T09:30:33.006Z,50.40
2019-02-28T09:33:01.529Z,52.40
2019-02-28T09:35:29.991Z,52.20
2019-02-28T09:38:00.232Z,52.20
2019-02-28T09:40:29.445Z,51.00
2019-02-28T09:42:58.928Z,51.50
2019-02-28T09:45:29.986Z,51.10
2019-02-28T09:48:01.856Z,52.10
2019-02-28T09:50:28.951Z,51.50
2019-02-28T09:52:57.402Z,51.40
2019-02-28T09:55:25.879Z,49.90
2019-02-28T09:57:55.091Z,48.20
2019-02-28T10:00:29.087Z,48.40
2019-02-28T10:02:57.685Z,47.60
2019-02-28T10:05:26.666Z,46.20
2019-02-28T10:07:55.188Z,46.70
2019-02-28T10:10:29.115Z,45.30
2019-02-28T10:12:57.658Z,46.50
2019-02-28T10:15:26.253Z,45.20
2019-02-28T10:17:54.869Z,44.30
2019-02-28T10:20:29.071Z,44.30
2019-02-28T10:22:57.973Z,45.20
2019-02-28T10:25:26.567Z,46.00
2019-02-28T10:27:55.116Z,44.20
2019-02-28T10:30:31.684Z,46.80
2019-02-28T10:32:55.115Z,47.80
2019-02-28T10:35:23.659Z,47.10
2019-02-28T10:37:57.379Z,47.70
2019-02-28T10:40:27.050Z,47.30
2019-02-28T10:42:55.506Z,47.60
2019-02-28T10:45:24.978Z,47.00
2019-02-28T10:47:53.587Z,46.90
2019-02-28T10:50:25.912Z,46.70
2019-02-28T10:52:54.766Z,44.40
2019-02-28T10:55:23.432Z,44.10
2019-02-28T10:57:52.493Z,43.00
2019-02-28T11:00:29.456Z,43.20
2019-02-28T11:02:58.605Z,42.50
2019-02-28T11:05:37.895Z,42.40
2019-02-28T11:08:09.766Z,43.80
2019-02-28T11:10:39.736Z,45.10
2019-02-28T11:13:11.494Z,44.80
2019-02-28T11:15:40.012Z,43.90
2019-02-28T11:18:09.932Z,45.40
2019-02-28T11:20:40.299Z,46.40
2019-02-28T11:23:14.253Z,44.20
2019-02-28T11:25:39.901Z,44.30
2019-02-28T11:28:08.606Z,42.50
2019-02-28T11:30:37.294Z,41.00
2019-02-28T11:33:06.540Z,40.90
2019-02-28T11:35:35.070Z,44.50
2019-02-28T11:38:04.972Z,46.00
2019-02-28T11:40:34.034Z,44.20
2019-02-28T11:43:03.915Z,42.80
2019-02-28T11:45:35.377Z,44.60
2019-02-28T11:48:08.633Z,46.30
2019-02-28T11:50:41.188Z,44.20
2019-02-28T11:53:07.519Z,44.20
2019-02-28T11:55:36.067Z,44.50
2019-02-28T11:58:04.659Z,42.50
2019-02-28T12:00:37.686Z,43.40
2019-02-28T12:03:06.179Z,47.40
2019-02-28T12:05:34.672Z,50.20
2019-02-28T12:08:09.255Z,50.60
2019-02-28T12:10:33.810Z,50.80
2019-02-28T12:13:02.398Z,51.80
2019-02-28T12:15:38.223Z,50.90
2019-02-28T12:18:06.734Z,49.60
2019-02-28T12:20:35.254Z,49.50
2019-02-28T12:23:03.921Z,46.80
2019-02-28T12:25:32.611Z,45.00
2019-02-28T12:28:02.598Z,47.50
2019-02-28T12:30:33.373Z,46.90
2019-02-28T12:33:01.955Z,46.80
2019-02-28T12:35:37.301Z,48.80
2019-02-28T12:38:01.189Z,48.30
2019-02-28T12:40:34.402Z,44.60
2019-02-28T12:43:08.196Z,43.90
2019-02-28T12:45:37.804Z,43.80
2019-02-28T12:48:06.395Z,44.30
2019-02-28T12:50:35.122Z,45.60
2019-02-28T12:53:03.953Z,45.30
2019-02-28T12:55:35.636Z,43.70
2019-02-28T12:58:02.823Z,43.20
2019-02-28T13:00:34.191Z,42.90
2019-02-28T13:03:02.780Z,42.70
2019-02-28T13:05:32.038Z,42.70
2019-02-28T13:08:00.730Z,42.80
2019-02-28T13:10:31.125Z,42.50
2019-02-28T13:13:06.239Z,40.80
2019-02-28T13:15:30.194Z,40.60
2019-02-28T13:17:58.783Z,41.60
2019-02-28T13:20:33.703Z,40.00
2019-02-28T13:23:02.141Z,39.10
2019-02-28T13:25:30.696Z,37.80
2019-02-28T13:27:59.340Z,39.00
2019-02-28T13:30:28.625Z,40.90
2019-02-28T13:32:57.326Z,40.80
2019-02-28T13:35:37.255Z,39.70
2019-02-28T13:38:05.926Z,39.20
2019-02-28T13:40:34.541Z,38.30
2019-02-28T13:43:03.091Z,37.40
2019-02-28T13:45:31.840Z,38.90
2019-02-28T13:48:00.328Z,40.00
2019-02-28T13:50:33.523Z,42.70
2019-02-28T13:53:17.072Z,42.00
2019-02-28T13:55:32.225Z,41.20
2019-02-28T13:58:01.156Z,41.40
2019-02-28T14:00:31.997Z,42.50
2019-02-28T14:03:09.363Z,43.50
2019-02-28T14:05:40.850Z,43.40
2019-02-28T14:08:11.195Z,43.20
2019-02-28T14:10:37.462Z,43.50
2019-02-28T14:13:06.397Z,42.90
2019-02-28T14:15:43.961Z,44.60
2019-02-28T14:18:13.953Z,46.40
2019-02-28T14:20:42.573Z,45.80
2019-02-28T14:23:11.277Z,45.90
2019-02-28T14:25:41.134Z,44.80
2019-02-28T14:28:10.446Z,44.50
2019-02-28T14:30:39.057Z,44.80
2019-02-28T14:33:08.211Z,45.90
2019-02-28T14:35:38.650Z,46.80
2019-02-28T14:38:07.078Z,47.00
2019-02-28T14:40:35.607Z,47.30
2019-02-28T14:43:04.358Z,48.30
2019-02-28T14:45:39.173Z,48.10
2019-02-28T14:48:05.852Z,49.20
2019-02-28T14:50:34.407Z,49.40
2019-02-28T14:53:02.870Z,49.80
2019-02-28T14:55:32.603Z,49.90
2019-02-28T14:58:01.672Z,49.80
2019-02-28T15:00:32.397Z,50.50
2019-02-28T15:03:03.117Z,51.10
2019-02-28T15:05:37.495Z,53.20
2019-02-28T15:08:06.045Z,54.40
2019-02-28T15:10:35.283Z,53.90
2019-02-28T15:13:04.934Z,54.50
2019-02-28T15:15:36.104Z,55.00
2019-02-28T15:18:05.074Z,54.40
2019-02-28T15:20:33.631Z,55.80
2019-02-28T15:23:02.099Z,56.20
2019-02-28T15:25:31.171Z,57.00
2019-02-28T15:27:59.699Z,57.90
2019-02-28T15:30:33.876Z,58.20
2019-02-28T15:33:03.113Z,60.20
2019-02-28T15:35:31.747Z,60.10
2019-02-28T15:38:00.303Z,58.90
2019-02-28T15:40:43.260Z,59.40
2019-02-28T15:43:16.877Z,59.20
2019-02-28T15:45:41.895Z,59.00
2019-02-28T15:48:10.483Z,59.70
2019-02-28T15:50:38.942Z,59.50
2019-02-28T15:53:07.891Z,60.80
2019-02-28T15:55:37.301Z,61.80
2019-02-28T15:58:06.984Z,64.90
2019-02-28T16:00:36.806Z,65.10
2019-02-28T16:03:06.283Z,64.00
2019-02-28T16:05:34.937Z,63.30
2019-02-28T16:08:08.819Z,62.60
2019-02-28T16:10:35.350Z,64.10
2019-02-28T16:13:06.849Z,66.50
2019-02-28T16:15:35.610Z,67.60
2019-02-28T16:18:04.603Z,68.70
2019-02-28T16:20:33.190Z,70.70
2019-02-28T16:23:01.717Z,72.00
2019-02-28T16:25:35.158Z,72.90
2019-02-28T16:28:07.653Z,73.50
2019-02-28T16:30:35.403Z,72.90
2019-02-28T16:33:04.491Z,74.30
2019-02-28T16:35:32.943Z,74.20
2019-02-28T16:38:01.399Z,75.00
2019-02-28T16:40:31.426Z,73.90
2019-02-28T16:42:59.876Z,72.60
2019-02-28T16:45:37.535Z,70.50
2019-02-28T16:48:07.953Z,70.20
2019-02-28T16:50:36.738Z,70.00
2019-02-28T16:53:05.349Z,69.70
2019-02-28T16:55:34.041Z,70.50
2019-02-28T16:58:02.640Z,70.20
2019-02-28T17:00:31.258Z,70.90
2019-02-28T17:02:59.774Z,72.20
2019-02-28T17:05:28.458Z,72.70
2019-02-28T17:07:57.351Z,73.10
2019-02-28T17:10:36.396Z,73.80
2019-02-28T17:13:19.298Z,75.20
2019-02-28T17:16:06.180Z,77.00
2019-02-28T17:18:36.386Z,78.40
2019-02-28T17:21:05.731Z,79.00
2019-02-28T17:23:36.828Z,79.90
2019-02-28T17:26:06.193Z,80.50
2019-02-28T17:28:51.355Z,82.10
2019-02-28T17:31:21.562Z,82.90
2019-02-28T17:33:50.022Z,81.80
2019-02-28T17:36:20.381Z,81.40
2019-02-28T17:38:48.750Z,82.40
2019-02-28T17:41:17.214Z,83.00
2019-02-28T17:44:05.154Z,83.30
2019-02-28T17:46:33.677Z,84.20
2019-02-28T17:49:29.594Z,83.80
2019-02-28T17:52:01.222Z,84.30
2019-02-28T17:54:36.292Z,85.00
2019-02-28T17:57:10.465Z,86.00
2019-02-28T17:59:48.135Z,87.20
2019-02-28T18:02:25.289Z,87.40
2019-02-28T18:04:59.380Z,88.50
2019-02-28T18:07:42.400Z,90.40
2019-02-28T18:10:47.235Z,90.80
2019-02-28T18:13:20.065Z,91.20
2019-02-28T18:15:57.997Z,91.50
2019-02-28T18:18:35.506Z,91.80
2019-02-28T18:21:07.153Z,91.90
2019-02-28T18:24:04.297Z,92.10
2019-02-28T18:26:52.443Z,92.20
2019-02-28T18:29:26.535Z,92.30
2019-02-28T18:31:57.083Z,92.40
2019-02-28T18:34:25.223Z,92.60
2019-02-28T18:36:53.679Z,92.80
2019-02-28T18:39:22.135Z,92.70
2019-02-28T18:41:50.868Z,92.70
2019-02-28T18:44:19.443Z,92.80
2019-02-28T18:46:48.885Z,92.70
2019-02-28T18:49:17.650Z,92.70
2019-02-28T18:51:46.103Z,93.00
2019-02-28T18:54:14.574Z,93.20
2019-02-28T18:56:43.198Z,93.50
2019-02-28T18:59:11.718Z,93.90
2019-02-28T19:01:40.370Z,93.90
2019-02-28T19:04:08.851Z,93.70
2019-02-28T19:06:37.303Z,94.00
2019-02-28T19:09:13.419Z,93.80
2019-02-28T19:11:41.900Z,93.90
2019-02-28T19:14:10.414Z,93.80
2019-02-28T19:16:38.887Z,93.80
2019-02-28T19:19:07.410Z,93.80
2019-02-28T19:21:35.860Z,93.50
2019-02-28T19:24:04.886Z,93.30
2019-02-28T19:26:33.363Z,93.60
2019-02-28T19:29:01.811Z,93.50
2019-02-28T19:31:30.282Z,93.60
2019-02-28T19:33:58.772Z,93.50
2019-02-28T19:36:27.330Z,93.70
2019-02-28T19:38:55.882Z,93.40
2019-02-28T19:41:24.337Z,93.30
2019-02-28T19:43:52.786Z,93.00
2019-02-28T19:46:21.386Z,93.10
2019-02-28T19:48:49.839Z,93.00
2019-02-28T19:51:18.286Z,92.90
2019-02-28T19:53:46.874Z,92.60
2019-02-28T19:56:15.371Z,92.80
2019-02-28T19:58:43.851Z,92.70
2019-02-28T20:01:18.830Z,92.90
2019-02-28T20:03:42.555Z,92.90
2019-02-28T20:06:11.291Z,92.80
2019-02-28T20:08:39.745Z,93.20
2019-02-28T20:11:08.382Z,93.90
2019-02-28T20:13:36.999Z,93.70
2019-02-28T20:16:05.754Z,93.80
2019-02-28T20:18:34.397Z,93.70
2019-02-28T20:21:03.055Z,93.80
2019-02-28T20:23:31.645Z,94.00
2019-02-28T20:26:00.118Z,93.90
2019-02-28T20:28:28.588Z,94.00
2019-02-28T20:30:57.074Z,94.10
2019-02-28T20:33:25.709Z,94.60
2019-02-28T20:35:54.155Z,94.10
2019-02-28T20:38:22.650Z,94.10
2019-02-28T20:40:51.106Z,94.20
2019-02-28T20:43:19.670Z,94.30
2019-02-28T20:45:48.191Z,94.20
2019-02-28T20:48:17.781Z,93.80
2019-02-28T20:50:48.807Z,93.80
2019-02-28T20:53:17.267Z,94.20
2019-02-28T20:55:45.740Z,94.80
2019-02-28T20:58:16.018Z,95.10
2019-02-28T21:00:44.730Z,95.30
2019-02-28T21:03:13.205Z,95.60
2019-02-28T21:05:41.658Z,95.90
2019-02-28T21:08:10.198Z,95.90
2019-02-28T21:10:38.646Z,96.20
2019-02-28T21:13:07.281Z,96.50
2019-02-28T21:15:35.874Z,97.10
2019-02-28T21:18:04.571Z,96.90
2019-02-28T21:20:33.045Z,97.20
2019-02-28T21:23:01.495Z,97.30
2019-02-28T21:25:30.034Z,97.30
2019-02-28T21:27:58.484Z,97.50
2019-02-28T21:30:27.990Z,97.60
2019-02-28T21:32:56.441Z,97.70
2019-02-28T21:35:25.723Z,97.90
2019-02-28T21:37:54.336Z,98.10
2019-02-28T21:40:23.963Z,98.20
2019-02-28T21:42:52.626Z,98.20
2019-02-28T21:45:23.926Z,98.20
2019-02-28T21:47:52.382Z,98.50
2019-02-28T21:50:20.928Z,98.50
2019-02-28T21:52:49.447Z,98.20
2019-02-28T21:55:18.177Z,98.50
2019-02-28T21:57:46.709Z,98.60
2019-02-28T22:00:31.583Z,99.00
2019-02-28T22:03:00.038Z,99.00
2019-02-28T22:05:28.638Z,98.90
2019-02-28T22:07:57.640Z,98.90
2019-02-28T22:10:26.161Z,99.10
2019-02-28T22:12:54.696Z,99.30
2019-02-28T22:15:24.481Z,99.40
2019-02-28T22:17:53.171Z,99.50
2019-02-28T22:20:21.724Z,99.90
2019-02-28T22:22:50.174Z,99.70
2019-02-28T22:25:18.835Z,99.90
2019-02-28T22:27:47.938Z,99.90
2019-02-28T22:30:38.724Z,99.90
2019-02-28T22:33:17.558Z,99.90
2019-02-28T22:35:47.649Z,99.90
2019-02-28T22:38:16.093Z,99.90
2019-02-28T22:40:44.580Z,99.90
2019-02-28T22:43:13.039Z,99.90
2019-02-28T22:45:41.500Z,99.90
2019-02-28T22:48:10.199Z,99.90
2019-02-28T22:50:38.662Z,99.90
2019-02-28T22:53:07.182Z,99.90
2019-02-28T22:55:35.725Z,99.80
2019-02-28T22:58:11.398Z,99.60
2019-02-28T23:01:08.467Z,99.60
2019-02-28T23:03:37.377Z,99.10
2019-02-28T23:06:06.422Z,99.30
2019-02-28T23:08:35.030Z,99.30
2019-02-28T23:11:03.756Z,99.40
2019-02-28T23:13:32.209Z,99.40
2019-02-28T23:16:01.128Z,99.50
2019-02-28T23:18:29.586Z,99.60
2019-02-28T23:20:58.116Z,99.50
2019-02-28T23:23:26.604Z,99.60
2019-02-28T23:26:05.829Z,99.70
2019-02-28T23:28:29.185Z,99.80
2019-02-28T23:31:22.911Z,99.90
2019-02-28T23:34:00.970Z,99.90
2019-02-28T23:36:21.914Z,99.90
2019-02-28T23:38:50.462Z,99.90
2019-02-28T23:41:18.910Z,99.90
2019-02-28T23:43:47.421Z,99.90
2019-02-28T23:46:15.895Z,99.90
2019-02-28T23:48:44.330Z,99.90
2019-02-28T23:51:12.779Z,99.90
2019-02-28T23:53:41.260Z,99.90
2019-02-28T23:56:09.697Z,99.90
2019-02-28T23:58:38.154Z,99.90
